sensor_id;sensor_type;location;lat;lon;timestamp;P1;durP1;ratioP1;P2;durP2;ratioP2
18076;SDS011;9165;45.714;11.362;2023-09-19T00:01:31;8.63;;;2.97;;
18076;SDS011;9165;45.714;11.362;2023-09-19T00:03:59;9.47;;;3.47;;
18076;SDS011;9165;45.714;11.362;2023-09-19T00:06:27;9.03;;;2.70;;
18076;SDS011;9165;45.714;11.362;2023-09-19T00:08:56;5.27;;;2.97;;
18076;SDS011;9165;45.714;11.362;2023-09-19T00:11:24;7.97;;;3.80;;
18076;SDS011;9165;45.714;11.362;2023-09-19T00:13:51;7.40;;;3.23;;
18076;SDS011;9165;45.714;11.362;2023-09-19T00:16:17;8.67;;;3.70;;
18076;SDS011;9165;45.714;11.362;2023-09-19T00:18:45;4.77;;;2.60;;
18076;SDS011;9165;45.714;11.362;2023-09-19T00:21:13;6.83;;;3.10;;
18076;SDS011;9165;45.714;11.362;2023-09-19T00:23:40;12.00;;;3.00;;
18076;SDS011;9165;45.714;11.362;2023-09-19T00:26:07;8.17;;;2.93;;
18076;SDS011;9165;45.714;11.362;2023-09-19T00:28:33;8.23;;;2.43;;
18076;SDS011;9165;45.714;11.362;2023-09-19T00:31:00;11.10;;;2.20;;
18076;SDS011;9165;45.714;11.362;2023-09-19T00:33:27;6.47;;;2.77;;
18076;SDS011;9165;45.714;11.362;2023-09-19T00:35:54;8.07;;;3.30;;
18076;SDS011;9165;45.714;11.362;2023-09-19T00:38:23;9.03;;;2.90;;
18076;SDS011;9165;45.714;11.362;2023-09-19T00:40:52;10.10;;;3.20;;
18076;SDS011;9165;45.714;11.362;2023-09-19T00:43:19;10.80;;;2.70;;
18076;SDS011;9165;45.714;11.362;2023-09-19T00:45:46;9.30;;;3.43;;
18076;SDS011;9165;45.714;11.362;2023-09-19T00:48:13;10.03;;;2.60;;
18076;SDS011;9165;45.714;11.362;2023-09-19T00:50:40;7.90;;;2.83;;
18076;SDS011;9165;45.714;11.362;2023-09-19T00:53:09;4.57;;;2.57;;
18076;SDS011;9165;45.714;11.362;2023-09-19T00:55:37;4.83;;;2.53;;
18076;SDS011;9165;45.714;11.362;2023-09-19T00:58:04;6.23;;;2.77;;
18076;SDS011;9165;45.714;11.362;2023-09-19T01:00:31;6.80;;;2.50;;
18076;SDS011;9165;45.714;11.362;2023-09-19T01:02:59;8.30;;;2.53;;
18076;SDS011;9165;45.714;11.362;2023-09-19T01:05:26;9.80;;;2.57;;
18076;SDS011;9165;45.714;11.362;2023-09-19T01:07:53;8.47;;;2.60;;
18076;SDS011;9165;45.714;11.362;2023-09-19T01:10:20;7.30;;;2.60;;
18076;SDS011;9165;45.714;11.362;2023-09-19T01:12:51;6.77;;;2.40;;
18076;SDS011;9165;45.714;11.362;2023-09-19T01:15:21;5.30;;;2.97;;
18076;SDS011;9165;45.714;11.362;2023-09-19T01:17:53;10.27;;;2.83;;
18076;SDS011;9165;45.714;11.362;2023-09-19T01:20:27;8.03;;;2.53;;
18076;SDS011;9165;45.714;11.362;2023-09-19T01:23:00;7.17;;;2.80;;
18076;SDS011;9165;45.714;11.362;2023-09-19T01:25:42;5.17;;;2.10;;
18076;SDS011;9165;45.714;11.362;2023-09-19T01:28:24;8.30;;;2.43;;
18076;SDS011;9165;45.714;11.362;2023-09-19T01:30:57;6.87;;;2.40;;
18076;SDS011;9165;45.714;11.362;2023-09-19T01:33:25;6.97;;;2.20;;
18076;SDS011;9165;45.714;11.362;2023-09-19T01:35:52;6.17;;;2.40;;
18076;SDS011;9165;45.714;11.362;2023-09-19T01:38:23;10.57;;;2.73;;
18076;SDS011;9165;45.714;11.362;2023-09-19T01:40:52;7.07;;;2.20;;
18076;SDS011;9165;45.714;11.362;2023-09-19T01:43:25;5.27;;;2.70;;
18076;SDS011;9165;45.714;11.362;2023-09-19T01:45:55;7.20;;;2.33;;
18076;SDS011;9165;45.714;11.362;2023-09-19T01:48:29;10.77;;;2.67;;
18076;SDS011;9165;45.714;11.362;2023-09-19T01:51:00;9.13;;;2.67;;
18076;SDS011;9165;45.714;11.362;2023-09-19T01:53:28;11.73;;;2.37;;
18076;SDS011;9165;45.714;11.362;2023-09-19T01:55:56;5.63;;;2.43;;
18076;SDS011;9165;45.714;11.362;2023-09-19T01:58:25;10.23;;;2.60;;
18076;SDS011;9165;45.714;11.362;2023-09-19T02:00:53;7.00;;;2.27;;
18076;SDS011;9165;45.714;11.362;2023-09-19T02:03:21;8.77;;;2.60;;
18076;SDS011;9165;45.714;11.362;2023-09-19T02:05:50;9.43;;;2.50;;
18076;SDS011;9165;45.714;11.362;2023-09-19T02:08:19;9.33;;;2.30;;
18076;SDS011;9165;45.714;11.362;2023-09-19T02:10:45;4.43;;;2.17;;
18076;SDS011;9165;45.714;11.362;2023-09-19T02:13:14;8.17;;;2.03;;
18076;SDS011;9165;45.714;11.362;2023-09-19T02:15:42;7.23;;;2.20;;
18076;SDS011;9165;45.714;11.362;2023-09-19T02:18:09;10.97;;;2.57;;
18076;SDS011;9165;45.714;11.362;2023-09-19T02:20:36;10.70;;;2.50;;
18076;SDS011;9165;45.714;11.362;2023-09-19T02:23:05;6.77;;;3.43;;
18076;SDS011;9165;45.714;11.362;2023-09-19T02:25:31;5.93;;;2.10;;
18076;SDS011;9165;45.714;11.362;2023-09-19T02:27:58;10.63;;;2.40;;
18076;SDS011;9165;45.714;11.362;2023-09-19T02:30:26;7.83;;;2.40;;
18076;SDS011;9165;45.714;11.362;2023-09-19T02:32:53;4.90;;;2.37;;
18076;SDS011;9165;45.714;11.362;2023-09-19T02:35:19;9.33;;;2.83;;
18076;SDS011;9165;45.714;11.362;2023-09-19T02:37:46;11.93;;;2.60;;
18076;SDS011;9165;45.714;11.362;2023-09-19T02:40:14;4.77;;;2.17;;
18076;SDS011;9165;45.714;11.362;2023-09-19T02:42:45;5.27;;;2.10;;
18076;SDS011;9165;45.714;11.362;2023-09-19T02:45:14;11.97;;;2.83;;
18076;SDS011;9165;45.714;11.362;2023-09-19T02:47:40;8.47;;;2.43;;
18076;SDS011;9165;45.714;11.362;2023-09-19T02:50:07;6.97;;;1.93;;
18076;SDS011;9165;45.714;11.362;2023-09-19T02:52:36;14.90;;;3.10;;
18076;SDS011;9165;45.714;11.362;2023-09-19T02:55:02;7.50;;;2.27;;
18076;SDS011;9165;45.714;11.362;2023-09-19T02:57:32;8.30;;;2.27;;
18076;SDS011;9165;45.714;11.362;2023-09-19T02:59:59;6.30;;;2.60;;
18076;SDS011;9165;45.714;11.362;2023-09-19T03:02:27;9.17;;;2.30;;
18076;SDS011;9165;45.714;11.362;2023-09-19T03:04:54;3.13;;;1.80;;
18076;SDS011;9165;45.714;11.362;2023-09-19T03:07:21;13.07;;;2.80;;
18076;SDS011;9165;45.714;11.362;2023-09-19T03:09:48;6.40;;;2.30;;
18076;SDS011;9165;45.714;11.362;2023-09-19T03:12:15;5.40;;;2.20;;
18076;SDS011;9165;45.714;11.362;2023-09-19T03:14:43;6.83;;;1.97;;
18076;SDS011;9165;45.714;11.362;2023-09-19T03:17:09;9.40;;;2.30;;
18076;SDS011;9165;45.714;11.362;2023-09-19T03:19:36;6.33;;;2.20;;
18076;SDS011;9165;45.714;11.362;2023-09-19T03:22:04;5.07;;;2.80;;
18076;SDS011;9165;45.714;11.362;2023-09-19T03:24:31;6.10;;;2.23;;
18076;SDS011;9165;45.714;11.362;2023-09-19T03:26:58;8.10;;;2.33;;
18076;SDS011;9165;45.714;11.362;2023-09-19T03:29:25;13.40;;;2.43;;
18076;SDS011;9165;45.714;11.362;2023-09-19T03:31:53;4.30;;;1.83;;
18076;SDS011;9165;45.714;11.362;2023-09-19T03:34:20;6.63;;;2.00;;
18076;SDS011;9165;45.714;11.362;2023-09-19T03:36:47;9.80;;;2.90;;
18076;SDS011;9165;45.714;11.362;2023-09-19T03:39:14;9.37;;;2.20;;
18076;SDS011;9165;45.714;11.362;2023-09-19T03:41:41;4.63;;;2.23;;
18076;SDS011;9165;45.714;11.362;2023-09-19T03:44:08;6.20;;;2.00;;
18076;SDS011;9165;45.714;11.362;2023-09-19T03:46:34;5.90;;;1.90;;
18076;SDS011;9165;45.714;11.362;2023-09-19T03:49:03;5.60;;;2.17;;
18076;SDS011;9165;45.714;11.362;2023-09-19T03:51:30;6.17;;;2.37;;
18076;SDS011;9165;45.714;11.362;2023-09-19T03:53:56;6.67;;;2.23;;
18076;SDS011;9165;45.714;11.362;2023-09-19T03:56:23;5.23;;;2.17;;
18076;SDS011;9165;45.714;11.362;2023-09-19T03:58:49;3.73;;;1.70;;
18076;SDS011;9165;45.714;11.362;2023-09-19T04:01:16;6.27;;;2.20;;
18076;SDS011;9165;45.714;11.362;2023-09-19T04:03:43;9.33;;;2.57;;
18076;SDS011;9165;45.714;11.362;2023-09-19T04:06:14;5.77;;;2.47;;
18076;SDS011;9165;45.714;11.362;2023-09-19T04:08:41;4.37;;;2.20;;
18076;SDS011;9165;45.714;11.362;2023-09-19T04:11:08;7.57;;;2.00;;
18076;SDS011;9165;45.714;11.362;2023-09-19T04:13:34;6.13;;;1.80;;
18076;SDS011;9165;45.714;11.362;2023-09-19T04:16:01;8.53;;;2.10;;
18076;SDS011;9165;45.714;11.362;2023-09-19T04:18:27;7.47;;;2.23;;
18076;SDS011;9165;45.714;11.362;2023-09-19T04:20:56;9.00;;;3.00;;
18076;SDS011;9165;45.714;11.362;2023-09-19T04:23:24;10.60;;;3.00;;
18076;SDS011;9165;45.714;11.362;2023-09-19T04:25:50;8.80;;;2.20;;
18076;SDS011;9165;45.714;11.362;2023-09-19T04:28:17;4.60;;;2.10;;
18076;SDS011;9165;45.714;11.362;2023-09-19T04:30:43;4.93;;;2.10;;
18076;SDS011;9165;45.714;11.362;2023-09-19T04:33:10;5.13;;;2.03;;
18076;SDS011;9165;45.714;11.362;2023-09-19T04:35:39;8.30;;;2.43;;
18076;SDS011;9165;45.714;11.362;2023-09-19T04:38:07;6.90;;;2.23;;
18076;SDS011;9165;45.714;11.362;2023-09-19T04:40:35;7.33;;;2.40;;
18076;SDS011;9165;45.714;11.362;2023-09-19T04:43:04;6.23;;;2.23;;
18076;SDS011;9165;45.714;11.362;2023-09-19T04:45:32;6.63;;;1.77;;
18076;SDS011;9165;45.714;11.362;2023-09-19T04:47:59;10.03;;;2.50;;
18076;SDS011;9165;45.714;11.362;2023-09-19T04:50:27;7.57;;;2.83;;
18076;SDS011;9165;45.714;11.362;2023-09-19T04:52:54;8.50;;;2.33;;
18076;SDS011;9165;45.714;11.362;2023-09-19T04:55:21;5.40;;;2.30;;
18076;SDS011;9165;45.714;11.362;2023-09-19T04:57:49;4.53;;;1.93;;
18076;SDS011;9165;45.714;11.362;2023-09-19T05:00:18;10.53;;;2.03;;
18076;SDS011;9165;45.714;11.362;2023-09-19T05:02:48;9.87;;;2.23;;
18076;SDS011;9165;45.714;11.362;2023-09-19T05:05:15;5.93;;;2.17;;
18076;SDS011;9165;45.714;11.362;2023-09-19T05:07:42;7.63;;;1.87;;
18076;SDS011;9165;45.714;11.362;2023-09-19T05:10:09;7.23;;;2.00;;
18076;SDS011;9165;45.714;11.362;2023-09-19T05:12:37;6.20;;;2.40;;
18076;SDS011;9165;45.714;11.362;2023-09-19T05:15:05;5.70;;;2.07;;
18076;SDS011;9165;45.714;11.362;2023-09-19T05:17:33;3.73;;;2.63;;
18076;SDS011;9165;45.714;11.362;2023-09-19T05:20:00;4.90;;;2.23;;
18076;SDS011;9165;45.714;11.362;2023-09-19T05:22:31;3.80;;;2.07;;
18076;SDS011;9165;45.714;11.362;2023-09-19T05:24:59;3.83;;;2.07;;
18076;SDS011;9165;45.714;11.362;2023-09-19T05:27:26;5.93;;;2.30;;
18076;SDS011;9165;45.714;11.362;2023-09-19T05:29:52;7.77;;;2.43;;
18076;SDS011;9165;45.714;11.362;2023-09-19T05:32:22;6.70;;;1.90;;
18076;SDS011;9165;45.714;11.362;2023-09-19T05:34:49;7.67;;;2.10;;
18076;SDS011;9165;45.714;11.362;2023-09-19T05:37:18;10.00;;;2.60;;
18076;SDS011;9165;45.714;11.362;2023-09-19T05:39:44;10.00;;;2.20;;
18076;SDS011;9165;45.714;11.362;2023-09-19T05:42:11;3.73;;;2.03;;
18076;SDS011;9165;45.714;11.362;2023-09-19T05:44:38;8.13;;;2.67;;
18076;SDS011;9165;45.714;11.362;2023-09-19T05:47:05;23.40;;;2.93;;
18076;SDS011;9165;45.714;11.362;2023-09-19T05:49:35;8.37;;;2.70;;
18076;SDS011;9165;45.714;11.362;2023-09-19T05:52:04;6.90;;;1.97;;
18076;SDS011;9165;45.714;11.362;2023-09-19T05:54:31;9.07;;;3.07;;
18076;SDS011;9165;45.714;11.362;2023-09-19T05:56:58;5.87;;;2.27;;
18076;SDS011;9165;45.714;11.362;2023-09-19T05:59:25;9.63;;;2.37;;
18076;SDS011;9165;45.714;11.362;2023-09-19T06:01:51;3.27;;;2.83;;
18076;SDS011;9165;45.714;11.362;2023-09-19T06:04:18;11.53;;;2.50;;
18076;SDS011;9165;45.714;11.362;2023-09-19T06:06:49;5.73;;;2.67;;
18076;SDS011;9165;45.714;11.362;2023-09-19T06:09:16;7.37;;;2.93;;
18076;SDS011;9165;45.714;11.362;2023-09-19T06:11:44;4.50;;;3.33;;
18076;SDS011;9165;45.714;11.362;2023-09-19T06:14:10;6.07;;;3.00;;
18076;SDS011;9165;45.714;11.362;2023-09-19T06:16:37;8.87;;;2.97;;
18076;SDS011;9165;45.714;11.362;2023-09-19T06:19:05;4.63;;;2.77;;
18076;SDS011;9165;45.714;11.362;2023-09-19T06:21:35;6.67;;;3.20;;
18076;SDS011;9165;45.714;11.362;2023-09-19T06:24:04;9.27;;;3.20;;
18076;SDS011;9165;45.714;11.362;2023-09-19T06:26:30;5.67;;;3.00;;
18076;SDS011;9165;45.714;11.362;2023-09-19T06:28:57;5.67;;;3.13;;
18076;SDS011;9165;45.714;11.362;2023-09-19T06:31:24;10.77;;;3.00;;
18076;SDS011;9165;45.714;11.362;2023-09-19T06:33:51;9.67;;;3.27;;
18076;SDS011;9165;45.714;11.362;2023-09-19T06:36:18;7.23;;;3.13;;
18076;SDS011;9165;45.714;11.362;2023-09-19T06:38:45;5.37;;;2.50;;
18076;SDS011;9165;45.714;11.362;2023-09-19T06:41:13;7.23;;;3.00;;
18076;SDS011;9165;45.714;11.362;2023-09-19T06:43:42;6.33;;;2.60;;
18076;SDS011;9165;45.714;11.362;2023-09-19T06:46:09;5.13;;;3.03;;
18076;SDS011;9165;45.714;11.362;2023-09-19T06:48:35;8.97;;;3.37;;
18076;SDS011;9165;45.714;11.362;2023-09-19T06:51:02;8.87;;;2.87;;
18076;SDS011;9165;45.714;11.362;2023-09-19T06:53:30;9.20;;;3.20;;
18076;SDS011;9165;45.714;11.362;2023-09-19T06:55:56;6.83;;;2.97;;
18076;SDS011;9165;45.714;11.362;2023-09-19T06:58:25;11.97;;;3.70;;
18076;SDS011;9165;45.714;11.362;2023-09-19T07:00:51;7.77;;;3.73;;
18076;SDS011;9165;45.714;11.362;2023-09-19T07:03:18;10.53;;;3.57;;
18076;SDS011;9165;45.714;11.362;2023-09-19T07:05:47;9.47;;;4.23;;
18076;SDS011;9165;45.714;11.362;2023-09-19T07:08:14;7.60;;;3.70;;
18076;SDS011;9165;45.714;11.362;2023-09-19T07:10:40;11.20;;;4.37;;
18076;SDS011;9165;45.714;11.362;2023-09-19T07:13:13;14.63;;;3.77;;
18076;SDS011;9165;45.714;11.362;2023-09-19T07:15:43;6.37;;;3.70;;
18076;SDS011;9165;45.714;11.362;2023-09-19T07:18:12;13.87;;;3.60;;
18076;SDS011;9165;45.714;11.362;2023-09-19T07:20:39;11.40;;;4.03;;
18076;SDS011;9165;45.714;11.362;2023-09-19T07:23:14;6.60;;;3.40;;
18076;SDS011;9165;45.714;11.362;2023-09-19T07:25:40;10.90;;;3.47;;
18076;SDS011;9165;45.714;11.362;2023-09-19T07:28:07;11.80;;;3.87;;
18076;SDS011;9165;45.714;11.362;2023-09-19T07:30:35;9.43;;;4.00;;
18076;SDS011;9165;45.714;11.362;2023-09-19T07:33:03;11.63;;;4.10;;
18076;SDS011;9165;45.714;11.362;2023-09-19T07:35:30;11.93;;;3.90;;
18076;SDS011;9165;45.714;11.362;2023-09-19T07:37:57;10.20;;;3.57;;
18076;SDS011;9165;45.714;11.362;2023-09-19T07:40:26;10.13;;;3.50;;
18076;SDS011;9165;45.714;11.362;2023-09-19T07:42:54;6.40;;;3.63;;
18076;SDS011;9165;45.714;11.362;2023-09-19T07:45:20;9.33;;;3.47;;
18076;SDS011;9165;45.714;11.362;2023-09-19T07:47:48;10.43;;;4.10;;
18076;SDS011;9165;45.714;11.362;2023-09-19T07:50:16;16.00;;;4.77;;
18076;SDS011;9165;45.714;11.362;2023-09-19T07:52:43;7.70;;;3.20;;
18076;SDS011;9165;45.714;11.362;2023-09-19T07:55:10;8.60;;;3.63;;
18076;SDS011;9165;45.714;11.362;2023-09-19T07:57:41;7.90;;;2.57;;
18076;SDS011;9165;45.714;11.362;2023-09-19T08:00:09;8.83;;;2.50;;
18076;SDS011;9165;45.714;11.362;2023-09-19T08:02:36;8.23;;;2.67;;
18076;SDS011;9165;45.714;11.362;2023-09-19T08:05:04;7.90;;;2.67;;
18076;SDS011;9165;45.714;11.362;2023-09-19T08:07:36;6.60;;;2.67;;
18076;SDS011;9165;45.714;11.362;2023-09-19T08:10:03;3.73;;;2.37;;
18076;SDS011;9165;45.714;11.362;2023-09-19T08:12:29;8.67;;;2.97;;
18076;SDS011;9165;45.714;11.362;2023-09-19T08:14:57;5.40;;;2.40;;
18076;SDS011;9165;45.714;11.362;2023-09-19T08:17:24;4.43;;;2.80;;
18076;SDS011;9165;45.714;11.362;2023-09-19T08:19:50;6.27;;;2.40;;
18076;SDS011;9165;45.714;11.362;2023-09-19T08:22:18;12.47;;;3.57;;
18076;SDS011;9165;45.714;11.362;2023-09-19T08:24:46;9.30;;;3.10;;
18076;SDS011;9165;45.714;11.362;2023-09-19T08:27:13;9.37;;;2.20;;
18076;SDS011;9165;45.714;11.362;2023-09-19T08:29:39;8.43;;;3.40;;
18076;SDS011;9165;45.714;11.362;2023-09-19T08:32:07;5.33;;;3.30;;
18076;SDS011;9165;45.714;11.362;2023-09-19T08:34:34;7.10;;;3.47;;
18076;SDS011;9165;45.714;11.362;2023-09-19T08:37:03;5.67;;;3.30;;
18076;SDS011;9165;45.714;11.362;2023-09-19T08:39:30;9.20;;;4.17;;
18076;SDS011;9165;45.714;11.362;2023-09-19T08:42:00;8.57;;;3.30;;
18076;SDS011;9165;45.714;11.362;2023-09-19T08:44:26;7.80;;;3.43;;
18076;SDS011;9165;45.714;11.362;2023-09-19T08:46:55;7.90;;;3.40;;
18076;SDS011;9165;45.714;11.362;2023-09-19T08:49:41;8.07;;;3.87;;
18076;SDS011;9165;45.714;11.362;2023-09-19T08:52:19;9.13;;;3.40;;
18076;SDS011;9165;45.714;11.362;2023-09-19T08:54:48;8.50;;;3.57;;
18076;SDS011;9165;45.714;11.362;2023-09-19T08:57:16;10.70;;;3.93;;
18076;SDS011;9165;45.714;11.362;2023-09-19T08:59:47;8.90;;;3.67;;
18076;SDS011;9165;45.714;11.362;2023-09-19T09:02:15;9.30;;;3.60;;
18076;SDS011;9165;45.714;11.362;2023-09-19T09:04:42;12.90;;;4.07;;
18076;SDS011;9165;45.714;11.362;2023-09-19T09:07:10;7.47;;;3.57;;
18076;SDS011;9165;45.714;11.362;2023-09-19T09:09:37;9.57;;;3.60;;
18076;SDS011;9165;45.714;11.362;2023-09-19T09:12:07;8.50;;;3.17;;
18076;SDS011;9165;45.714;11.362;2023-09-19T09:14:36;11.57;;;3.30;;
18076;SDS011;9165;45.714;11.362;2023-09-19T09:17:03;6.07;;;3.27;;
18076;SDS011;9165;45.714;11.362;2023-09-19T09:19:30;9.00;;;4.03;;
18076;SDS011;9165;45.714;11.362;2023-09-19T09:22:05;8.10;;;3.53;;
18076;SDS011;9165;45.714;11.362;2023-09-19T09:24:31;6.50;;;3.83;;
18076;SDS011;9165;45.714;11.362;2023-09-19T09:26:59;7.07;;;3.93;;
18076;SDS011;9165;45.714;11.362;2023-09-19T09:29:45;8.27;;;3.37;;
18076;SDS011;9165;45.714;11.362;2023-09-19T09:32:21;9.00;;;3.70;;
18076;SDS011;9165;45.714;11.362;2023-09-19T09:34:50;5.13;;;3.53;;
18076;SDS011;9165;45.714;11.362;2023-09-19T09:37:17;7.60;;;3.97;;
18076;SDS011;9165;45.714;11.362;2023-09-19T09:39:55;10.00;;;3.50;;
18076;SDS011;9165;45.714;11.362;2023-09-19T09:42:28;7.27;;;3.10;;
18076;SDS011;9165;45.714;11.362;2023-09-19T09:45:09;7.10;;;2.93;;
18076;SDS011;9165;45.714;11.362;2023-09-19T09:47:42;2.83;;;1.97;;
18076;SDS011;9165;45.714;11.362;2023-09-19T09:50:22;8.67;;;2.80;;
18076;SDS011;9165;45.714;11.362;2023-09-19T09:52:54;7.73;;;3.43;;
18076;SDS011;9165;45.714;11.362;2023-09-19T09:55:26;7.23;;;3.40;;
18076;SDS011;9165;45.714;11.362;2023-09-19T09:57:58;5.93;;;2.60;;
18076;SDS011;9165;45.714;11.362;2023-09-19T10:00:53;7.57;;;3.50;;
18076;SDS011;9165;45.714;11.362;2023-09-19T10:03:30;6.03;;;2.87;;
18076;SDS011;9165;45.714;11.362;2023-09-19T10:05:59;4.87;;;2.50;;
18076;SDS011;9165;45.714;11.362;2023-09-19T10:08:34;5.30;;;2.70;;
18076;SDS011;9165;45.714;11.362;2023-09-19T10:11:01;6.13;;;2.90;;
18076;SDS011;9165;45.714;11.362;2023-09-19T10:13:41;3.03;;;2.40;;
18076;SDS011;9165;45.714;11.362;2023-09-19T10:16:10;4.43;;;2.53;;
18076;SDS011;9165;45.714;11.362;2023-09-19T10:18:39;7.67;;;3.17;;
18076;SDS011;9165;45.714;11.362;2023-09-19T10:21:08;7.20;;;2.97;;
18076;SDS011;9165;45.714;11.362;2023-09-19T10:23:36;5.43;;;3.20;;
18076;SDS011;9165;45.714;11.362;2023-09-19T10:26:03;10.83;;;3.47;;
18076;SDS011;9165;45.714;11.362;2023-09-19T10:28:31;4.77;;;3.53;;
18076;SDS011;9165;45.714;11.362;2023-09-19T10:30:58;4.22;;;2.85;;
18076;SDS011;9165;45.714;11.362;2023-09-19T10:33:27;7.47;;;2.80;;
18076;SDS011;9165;45.714;11.362;2023-09-19T10:36:00;7.43;;;3.63;;
18076;SDS011;9165;45.714;11.362;2023-09-19T10:38:27;8.23;;;3.10;;
18076;SDS011;9165;45.714;11.362;2023-09-19T10:40:54;6.78;;;3.28;;
18076;SDS011;9165;45.714;11.362;2023-09-19T10:43:25;10.25;;;3.25;;
18076;SDS011;9165;45.714;11.362;2023-09-19T10:45:52;8.30;;;3.95;;
18076;SDS011;9165;45.714;11.362;2023-09-19T10:48:20;7.07;;;3.75;;
18076;SDS011;9165;45.714;11.362;2023-09-19T10:50:53;6.10;;;3.17;;
18076;SDS011;9165;45.714;11.362;2023-09-19T10:53:24;4.32;;;2.85;;
18076;SDS011;9165;45.714;11.362;2023-09-19T10:55:53;8.27;;;3.70;;
18076;SDS011;9165;45.714;11.362;2023-09-19T10:58:28;7.90;;;3.47;;
18076;SDS011;9165;45.714;11.362;2023-09-19T11:00:56;6.63;;;3.83;;
18076;SDS011;9165;45.714;11.362;2023-09-19T11:03:27;10.00;;;3.30;;
18076;SDS011;9165;45.714;11.362;2023-09-19T11:06:08;5.50;;;2.92;;
18076;SDS011;9165;45.714;11.362;2023-09-19T11:09:00;8.88;;;3.22;;
18076;SDS011;9165;45.714;11.362;2023-09-19T11:11:45;6.20;;;3.10;;
18076;SDS011;9165;45.714;11.362;2023-09-19T11:14:30;6.53;;;3.22;;
18076;SDS011;9165;45.714;11.362;2023-09-19T11:25:42;5.72;;;3.20;;
18076;SDS011;9165;45.714;11.362;2023-09-19T11:28:32;8.05;;;3.53;;
18076;SDS011;9165;45.714;11.362;2023-09-19T11:30:59;4.68;;;2.70;;
18076;SDS011;9165;45.714;11.362;2023-09-19T11:33:46;4.30;;;3.03;;
18076;SDS011;9165;45.714;11.362;2023-09-19T11:36:15;7.68;;;2.45;;
18076;SDS011;9165;45.714;11.362;2023-09-19T11:38:58;5.10;;;2.70;;
18076;SDS011;9165;45.714;11.362;2023-09-19T11:41:38;8.40;;;3.40;;
18076;SDS011;9165;45.714;11.362;2023-09-19T11:46:53;10.75;;;2.88;;
18076;SDS011;9165;45.714;11.362;2023-09-19T11:49:25;5.32;;;3.13;;
18076;SDS011;9165;45.714;11.362;2023-09-19T11:51:55;7.35;;;3.20;;
18076;SDS011;9165;45.714;11.362;2023-09-19T11:54:22;9.38;;;3.10;;
18076;SDS011;9165;45.714;11.362;2023-09-19T11:56:52;4.55;;;2.90;;
18076;SDS011;9165;45.714;11.362;2023-09-19T11:59:19;4.72;;;2.55;;
18076;SDS011;9165;45.714;11.362;2023-09-19T12:01:50;5.28;;;3.10;;
18076;SDS011;9165;45.714;11.362;2023-09-19T12:04:22;6.70;;;3.30;;
18076;SDS011;9165;45.714;11.362;2023-09-19T12:07:02;4.47;;;2.83;;
18076;SDS011;9165;45.714;11.362;2023-09-19T12:09:29;6.22;;;2.50;;
18076;SDS011;9165;45.714;11.362;2023-09-19T12:11:57;3.97;;;2.30;;
18076;SDS011;9165;45.714;11.362;2023-09-19T12:14:24;5.35;;;2.67;;
18076;SDS011;9165;45.714;11.362;2023-09-19T12:16:53;6.85;;;2.70;;
18076;SDS011;9165;45.714;11.362;2023-09-19T12:19:21;6.43;;;3.35;;
18076;SDS011;9165;45.714;11.362;2023-09-19T12:21:55;6.78;;;2.80;;
18076;SDS011;9165;45.714;11.362;2023-09-19T12:24:23;7.45;;;3.15;;
18076;SDS011;9165;45.714;11.362;2023-09-19T12:26:54;5.78;;;2.95;;
18076;SDS011;9165;45.714;11.362;2023-09-19T12:29:23;8.32;;;3.15;;
18076;SDS011;9165;45.714;11.362;2023-09-19T12:31:50;6.55;;;2.92;;
18076;SDS011;9165;45.714;11.362;2023-09-19T12:34:22;5.18;;;2.72;;
18076;SDS011;9165;45.714;11.362;2023-09-19T12:37:05;7.85;;;3.00;;
18076;SDS011;9165;45.714;11.362;2023-09-19T12:39:36;3.92;;;2.60;;
18076;SDS011;9165;45.714;11.362;2023-09-19T12:42:04;5.35;;;2.88;;
18076;SDS011;9165;45.714;11.362;2023-09-19T12:44:35;4.15;;;2.60;;
18076;SDS011;9165;45.714;11.362;2023-09-19T12:47:08;7.40;;;2.45;;
18076;SDS011;9165;45.714;11.362;2023-09-19T12:49:35;7.65;;;2.60;;
18076;SDS011;9165;45.714;11.362;2023-09-19T12:52:02;4.53;;;2.40;;
18076;SDS011;9165;45.714;11.362;2023-09-19T12:54:37;3.58;;;2.30;;
18076;SDS011;9165;45.714;11.362;2023-09-19T12:57:05;12.75;;;2.88;;
18076;SDS011;9165;45.714;11.362;2023-09-19T12:59:31;8.20;;;2.88;;
18076;SDS011;9165;45.714;11.362;2023-09-19T13:02:06;3.60;;;2.42;;
18076;SDS011;9165;45.714;11.362;2023-09-19T13:04:39;5.72;;;3.15;;
18076;SDS011;9165;45.714;11.362;2023-09-19T13:07:07;6.35;;;2.45;;
18076;SDS011;9165;45.714;11.362;2023-09-19T13:09:35;6.40;;;2.92;;
18076;SDS011;9165;45.714;11.362;2023-09-19T13:12:03;7.53;;;3.15;;
18076;SDS011;9165;45.714;11.362;2023-09-19T13:14:32;3.63;;;2.70;;
18076;SDS011;9165;45.714;11.362;2023-09-19T13:17:07;4.07;;;3.00;;
18076;SDS011;9165;45.714;11.362;2023-09-19T13:19:41;6.07;;;3.20;;
18076;SDS011;9165;45.714;11.362;2023-09-19T13:24:56;5.05;;;3.17;;
18076;SDS011;9165;45.714;11.362;2023-09-19T13:27:23;7.00;;;3.90;;
18076;SDS011;9165;45.714;11.362;2023-09-19T13:29:51;5.38;;;3.58;;
18076;SDS011;9165;45.714;11.362;2023-09-19T13:32:18;7.60;;;3.33;;
18076;SDS011;9165;45.714;11.362;2023-09-19T13:34:45;7.85;;;3.20;;
18076;SDS011;9165;45.714;11.362;2023-09-19T13:37:12;5.15;;;3.58;;
18076;SDS011;9165;45.714;11.362;2023-09-19T13:39:41;4.93;;;3.10;;
18076;SDS011;9165;45.714;11.362;2023-09-19T13:42:12;8.32;;;3.25;;
18076;SDS011;9165;45.714;11.362;2023-09-19T13:44:39;8.85;;;2.88;;
18076;SDS011;9165;45.714;11.362;2023-09-19T13:47:06;5.95;;;3.05;;
18076;SDS011;9165;45.714;11.362;2023-09-19T13:49:36;4.95;;;3.05;;
18076;SDS011;9165;45.714;11.362;2023-09-19T13:52:03;6.88;;;3.90;;
18076;SDS011;9165;45.714;11.362;2023-09-19T13:54:30;5.78;;;2.67;;
18076;SDS011;9165;45.714;11.362;2023-09-19T13:56:57;5.53;;;2.63;;
18076;SDS011;9165;45.714;11.362;2023-09-19T13:59:23;5.43;;;3.13;;
18076;SDS011;9165;45.714;11.362;2023-09-19T14:01:50;5.28;;;2.55;;
18076;SDS011;9165;45.714;11.362;2023-09-19T14:04:18;9.68;;;3.05;;
18076;SDS011;9165;45.714;11.362;2023-09-19T14:06:47;3.95;;;2.45;;
18076;SDS011;9165;45.714;11.362;2023-09-19T14:09:14;6.05;;;2.60;;
18076;SDS011;9165;45.714;11.362;2023-09-19T14:11:44;5.68;;;2.63;;
18076;SDS011;9165;45.714;11.362;2023-09-19T14:14:12;4.70;;;2.22;;
18076;SDS011;9165;45.714;11.362;2023-09-19T14:16:40;5.00;;;2.17;;
18076;SDS011;9165;45.714;11.362;2023-09-19T14:19:07;3.00;;;2.33;;
18076;SDS011;9165;45.714;11.362;2023-09-19T14:21:33;7.57;;;2.20;;
18076;SDS011;9165;45.714;11.362;2023-09-19T14:24:03;6.32;;;2.83;;
18076;SDS011;9165;45.714;11.362;2023-09-19T14:26:31;5.45;;;2.95;;
18076;SDS011;9165;45.714;11.362;2023-09-19T14:28:58;6.13;;;2.92;;
18076;SDS011;9165;45.714;11.362;2023-09-19T14:31:25;4.68;;;2.70;;
18076;SDS011;9165;45.714;11.362;2023-09-19T14:33:53;6.13;;;2.97;;
18076;SDS011;9165;45.714;11.362;2023-09-19T14:36:20;5.83;;;2.87;;
18076;SDS011;9165;45.714;11.362;2023-09-19T14:38:47;6.07;;;3.37;;
18076;SDS011;9165;45.714;11.362;2023-09-19T14:41:15;4.07;;;2.80;;
18076;SDS011;9165;45.714;11.362;2023-09-19T14:43:41;6.40;;;2.53;;
18076;SDS011;9165;45.714;11.362;2023-09-19T14:46:08;4.93;;;2.60;;
18076;SDS011;9165;45.714;11.362;2023-09-19T14:48:35;5.27;;;3.00;;
18076;SDS011;9165;45.714;11.362;2023-09-19T14:51:02;7.83;;;2.77;;
18076;SDS011;9165;45.714;11.362;2023-09-19T14:53:29;7.00;;;2.80;;
18076;SDS011;9165;45.714;11.362;2023-09-19T14:55:55;9.07;;;3.60;;
18076;SDS011;9165;45.714;11.362;2023-09-19T14:58:24;5.67;;;2.87;;
18076;SDS011;9165;45.714;11.362;2023-09-19T15:01:00;5.80;;;3.73;;
18076;SDS011;9165;45.714;11.362;2023-09-19T15:03:27;7.67;;;3.13;;
18076;SDS011;9165;45.714;11.362;2023-09-19T15:05:58;7.57;;;3.20;;
18076;SDS011;9165;45.714;11.362;2023-09-19T15:08:25;10.50;;;3.97;;
18076;SDS011;9165;45.714;11.362;2023-09-19T15:10:52;6.60;;;3.20;;